Time;durP1;ratioP1;P1;durP2;ratioP2;P2;SDS_P1;SDS_P2;PMS_P1;PMS_P2;Temp;Humidity;BMP_temperature;BMP_pressure;BME280_temperature;BME280_humidity;BME280_pressure;Samples;Min_cycle;Max_cycle;Signal;HPM_P1;HPM_P2
2023/05/05 00:08:36;;;;;;;1999.90;999.90;;;17.80;91.40;;;;;;6637800;88;20331;-78
2023/05/05 00:18:37;;;;;;;1999.90;999.90;;;17.50;92.00;;;;;;6649944;88;20200;-79
2023/05/05 00:28:38;;;;;;;1999.90;999.90;;;17.50;92.00;;;;;;6647169;88;20681;-80
2023/05/05 00:38:38;;;;;;;1999.90;999.90;;;17.40;92.70;;;;;;6638052;88;20310;-79
2023/05/05 00:48:39;;;;;;;1999.90;999.90;;;17.30;92.80;;;;;;6654182;88;20303;-79
2023/05/05 00:58:41;;;;;;;1999.90;999.90;;;17.10;93.20;;;;;;6644780;89;20189;-79
2023/05/05 01:09:04;;;;;;;1999.90;999.90;;;16.70;94.40;;;;;;6639885;88;20200;-79
2023/05/05 01:19:33;;;;;;;1999.90;999.90;;;16.40;95.00;;;;;;6634402;89;20256;-78
2023/05/05 01:30:03;;;;;;;1999.90;999.90;;;16.30;95.90;;;;;;6645982;88;20199;-79
2023/05/05 01:40:06;;;;;;;1999.90;999.90;;;16.30;96.20;;;;;;6644212;88;20197;-78
2023/05/05 01:50:09;;;;;;;1999.90;999.90;;;16.00;97.80;;;;;;6635887;89;20217;-78
2023/05/05 02:00:11;;;;;;;1999.90;999.90;;;15.70;99.90;;;;;;6639494;88;20189;-78
2023/05/05 02:10:13;;;;;;;1999.90;999.90;;;15.30;99.90;;;;;;6643761;88;20219;-78
2023/05/05 02:20:16;;;;;;;1999.90;999.90;;;15.20;99.90;;;;;;6637395;88;20211;-78
2023/05/05 02:30:19;;;;;;;1999.90;999.90;;;15.00;99.90;;;;;;6663528;88;20272;-79
2023/05/05 02:40:24;;;;;;;1999.90;999.90;;;14.70;99.90;;;;;;6641508;88;20194;-79
2023/05/05 02:50:24;;;;;;;1999.90;999.90;;;14.70;99.90;;;;;;6644611;88;20192;-79
2023/05/05 03:00:36;;;;;;;1999.90;999.90;;;14.60;99.90;;;;;;6638477;88;20308;-79
2023/05/05 03:10:49;;;;;;;1999.90;999.90;;;14.50;99.90;;;;;;6633821;88;20185;-78
2023/05/05 03:20:50;;;;;;;1999.90;999.90;;;14.50;99.90;;;;;;6635214;88;20295;-79
2023/05/05 03:30:51;;;;;;;1999.90;999.90;;;14.40;99.90;;;;;;6636890;88;20185;-77
2023/05/05 03:40:51;;;;;;;1999.90;999.90;;;14.50;99.90;;;;;;6642482;88;20233;-78
2023/05/05 03:50:52;;;;;;;1999.90;999.90;;;14.40;99.90;;;;;;6656181;78;20215;-78
2023/05/05 04:00:53;;;;;;;1999.90;999.90;;;14.10;99.90;;;;;;6743762;88;20204;-78
2023/05/05 04:10:53;;;;;;;1999.90;999.90;;;14.00;99.90;;;;;;6734841;88;20220;-78
2023/05/05 04:20:54;;;;;;;1999.90;999.90;;;14.10;99.90;;;;;;6742797;88;20730;-79
2023/05/05 04:30:55;;;;;;;1999.90;999.90;;;14.10;99.90;;;;;;6739577;88;20210;-78
2023/05/05 04:40:55;;;;;;;1999.90;999.90;;;14.10;99.90;;;;;;6733476;88;21040;-78
2023/05/05 04:50:56;;;;;;;1999.90;999.90;;;14.10;99.90;;;;;;6740824;88;20200;-78
2023/05/05 05:00:56;;;;;;;1999.90;999.90;;;14.20;99.90;;;;;;6737935;88;20197;-79
2023/05/05 05:10:58;;;;;;;1999.90;999.90;;;14.40;99.90;;;;;;6741299;88;20240;-78
2023/05/05 05:20:58;;;;;;;1999.90;999.90;;;14.50;99.90;;;;;;6739667;88;20344;-78
2023/05/05 05:30:59;;;;;;;1999.90;999.90;;;14.90;99.90;;;;;;6750520;88;20219;-79
2023/05/05 05:41:05;;;;;;;1999.90;999.90;;;15.20;99.90;;;;;;6742521;88;20698;-78
2023/05/05 05:51:05;;;;;;;1999.90;999.90;;;15.50;99.90;;;;;;6733837;88;20189;-79
2023/05/05 06:01:06;;;;;;;1999.90;999.90;;;15.80;99.90;;;;;;6738265;88;20709;-78
2023/05/05 06:11:06;;;;;;;1999.90;999.90;;;16.00;99.90;;;;;;6740549;88;20391;-80
2023/05/05 06:21:07;;;;;;;1999.90;999.90;;;16.10;99.90;;;;;;6748159;88;20391;-80
2023/05/05 06:31:08;;;;;;;1999.90;999.90;;;16.20;99.90;;;;;;6727623;88;20284;-79
2023/05/05 06:41:08;;;;;;;1999.90;999.90;;;16.40;99.90;;;;;;6728578;88;20180;-80
2023/05/05 06:51:09;;;;;;;1999.90;999.90;;;16.90;99.90;;;;;;6732999;88;20592;-80
2023/05/05 07:01:09;;;;;;;1999.90;999.90;;;17.30;99.90;;;;;;6730519;88;20235;-80
2023/05/05 07:11:10;;;;;;;1999.90;999.90;;;17.90;99.90;;;;;;6729690;88;20235;-80
2023/05/05 07:21:10;;;;;;;1999.90;999.90;;;18.50;99.90;;;;;;6727657;88;20212;-79
2023/05/05 07:31:11;;;;;;;1999.90;999.90;;;19.50;99.90;;;;;;6725933;88;20184;-79
2023/05/05 07:41:11;;;;;;;1999.90;999.90;;;19.30;99.90;;;;;;6730941;88;20209;-80
2023/05/05 07:51:12;;;;;;;1999.90;999.90;;;19.80;99.90;;;;;;6730206;88;20737;-79
2023/05/05 08:01:12;;;;;;;1999.90;999.90;;;20.80;99.90;;;;;;6722665;88;20181;-77
2023/05/05 08:11:14;;;;;;;1999.90;999.90;;;20.80;99.90;;;;;;6720354;88;20222;-78
2023/05/05 08:21:15;;;;;;;1999.90;999.90;;;21.40;99.90;;;;;;6732141;88;20211;-78
2023/05/05 08:31:15;;;;;;;1999.90;999.90;;;21.60;99.90;;;;;;6736646;88;20268;-77
2023/05/05 08:41:19;;;;;;;1999.90;999.90;;;22.40;99.90;;;;;;6742485;88;20251;-77
2023/05/05 08:51:20;;;;;;;1999.90;999.90;;;22.80;99.90;;;;;;6738051;88;20182;-78
2023/05/05 09:01:21;;;;;;;1999.90;999.90;;;23.20;99.90;;;;;;6729917;88;20300;-78
2023/05/05 09:11:22;;;;;;;1999.90;999.90;;;23.70;99.90;;;;;;6729737;88;20193;-78
2023/05/05 09:21:24;;;;;;;1999.90;999.90;;;24.20;99.90;;;;;;6728048;88;20714;-78
2023/05/05 09:31:26;;;;;;;1999.90;999.90;;;24.20;99.90;;;;;;6732522;88;20197;-78
2023/05/05 09:41:39;;;;;;;1999.90;999.90;;;24.70;99.90;;;;;;6725713;88;20205;-78
2023/05/05 09:51:40;;;;;;;1999.90;999.90;;;24.90;99.50;;;;;;6725117;77;20243;-75
2023/05/05 10:01:42;;;;;;;1999.90;999.90;;;24.40;99.40;;;;;;6709347;88;20288;-75
2023/05/05 10:11:45;;;;;;;1999.90;999.90;;;23.60;99.90;;;;;;6698995;88;20234;-76
2023/05/05 10:21:51;;;;;;;1999.90;999.90;;;23.50;99.90;;;;;;6691103;88;20236;-75
2023/05/05 10:31:54;;;;;;;1999.90;999.90;;;24.40;99.40;;;;;;6690764;88;20298;-75
2023/05/05 10:42:00;;;;;;;1999.90;999.90;;;23.70;99.90;;;;;;6689102;88;20329;-75
2023/05/05 10:52:39;;;;;;;1999.90;999.90;;;23.50;99.90;;;;;;6689363;88;20210;-75
2023/05/05 11:02:40;;;;;;;1999.90;999.90;;;23.80;99.90;;;;;;6689301;88;20210;-75
2023/05/05 11:12:57;;;;;;;1999.90;999.90;;;23.80;99.80;;;;;;6689701;88;20730;-76
2023/05/05 11:23:01;;;;;;;1999.90;999.90;;;23.80;98.80;;;;;;6690636;88;20624;-75
2023/05/05 11:33:20;;;;;;;;;;;24.00;99.30;;;;;;6687687;88;20797;-75
2023/05/05 11:43:21;;;;;;;1999.90;999.90;;;25.00;98.40;;;;;;6691037;88;20559;-75
2023/05/05 11:53:22;;;;;;;1999.90;999.90;;;21.30;99.50;;;;;;6687519;88;20196;-75
2023/05/05 12:03:22;;;;;;;1999.90;999.90;;;19.80;99.90;;;;;;6685420;88;20657;-75
2023/05/05 12:13:23;;;;;;;1999.90;999.90;;;19.40;99.90;;;;;;6687765;88;20359;-75
2023/05/05 12:23:26;;;;;;;1999.90;999.90;;;19.40;99.90;;;;;;6690678;88;20183;-74
2023/05/05 12:33:26;;;;;;;1999.90;999.90;;;19.30;99.90;;;;;;6692731;88;20723;-75
2023/05/05 12:43:31;;;;;;;1999.90;999.90;;;19.70;99.90;;;;;;6690581;88;20281;-75
2023/05/05 12:53:32;;;;;;;1999.90;999.90;;;20.30;99.90;;;;;;6688337;88;20612;-75
2023/05/05 13:03:32;;;;;;;1999.90;999.90;;;20.60;99.90;;;;;;6691400;88;20216;-74
2023/05/05 13:13:33;;;;;;;1999.90;999.90;;;20.80;99.90;;;;;;6693967;88;20252;-75
2023/05/05 13:23:33;;;;;;;1999.90;999.90;;;21.00;99.90;;;;;;6692759;88;20276;-75
2023/05/05 13:33:35;;;;;;;1999.90;999.90;;;20.70;99.90;;;;;;6692644;88;20545;-75
2023/05/05 13:43:35;;;;;;;1999.90;999.90;;;21.00;99.90;;;;;;6693312;88;20561;-75
2023/05/05 13:53:36;;;;;;;1999.90;999.90;;;20.60;99.90;;;;;;6688491;88;20227;-75
2023/05/05 14:03:38;;;;;;;1999.90;999.90;;;20.30;99.90;;;;;;6700634;88;20333;-75
2023/05/05 14:13:39;;;;;;;1999.90;999.90;;;20.40;99.90;;;;;;6697288;88;20770;-76
2023/05/05 14:23:39;;;;;;;1999.90;999.90;;;20.20;99.90;;;;;;6688189;88;20402;-75
2023/05/05 14:33:40;;;;;;;1999.90;999.90;;;20.00;99.90;;;;;;6689532;88;20195;-75
2023/05/05 14:43:40;;;;;;;1999.90;999.90;;;19.60;99.90;;;;;;6688828;88;20733;-75
2023/05/05 14:53:41;;;;;;;1999.90;999.90;;;19.90;99.90;;;;;;6689155;88;20219;-75
2023/05/05 15:03:41;;;;;;;1999.90;999.90;;;20.40;99.90;;;;;;6685722;88;20775;-75
2023/05/05 15:13:42;;;;;;;1999.90;999.90;;;20.30;99.90;;;;;;6688851;88;20683;-76
2023/05/05 15:23:42;;;;;;;1999.90;999.90;;;20.10;99.90;;;;;;6690658;88;20178;-76
2023/05/05 15:33:44;;;;;;;1999.90;999.90;;;19.80;99.90;;;;;;6690714;88;20261;-75
2023/05/05 15:43:44;;;;;;;1999.90;999.90;;;19.50;99.90;;;;;;6692774;88;20249;-75
2023/05/05 15:54:06;;;;;;;1999.90;999.90;;;19.40;99.90;;;;;;6693199;77;20346;-82
2023/05/05 16:04:07;;;;;;;1999.90;999.90;;;19.10;99.90;;;;;;6737726;88;20201;-80
2023/05/05 16:14:07;;;;;;;1999.90;999.90;;;17.00;99.90;;;;;;6735343;88;20186;-79
2023/05/05 16:24:08;;;;;;;1999.90;999.90;;;16.30;99.90;;;;;;6724066;88;20221;-79
2023/05/05 16:34:08;;;;;;;1999.90;999.90;;;16.60;99.90;;;;;;6730676;88;20202;-78
2023/05/05 16:44:15;;;;;;;1999.90;999.90;;;17.30;99.90;;;;;;6728683;88;20355;-78
2023/05/05 16:54:15;;;;;;;1999.90;999.90;;;18.00;99.90;;;;;;6732832;88;20690;-77
2023/05/05 17:04:16;;;;;;;1999.90;999.90;;;17.90;99.90;;;;;;6737672;88;20212;-78
2023/05/05 17:14:17;;;;;;;1999.90;999.90;;;17.50;99.90;;;;;;6673720;85;27245;-81
2023/05/05 17:24:17;;;;;;;1999.90;999.90;;;17.30;99.90;;;;;;6668764;89;20195;-81
2023/05/05 17:34:18;;;;;;;1999.90;999.90;;;17.50;99.90;;;;;;6672115;89;20762;-80
2023/05/05 17:44:18;;;;;;;1999.90;999.90;;;19.20;99.90;;;;;;6670078;89;20308;-79
2023/05/05 17:54:19;;;;;;;1999.90;999.90;;;17.90;99.90;;;;;;6666432;89;20249;-79
2023/05/05 18:04:20;;;;;;;1999.90;999.90;;;17.30;99.90;;;;;;6668250;89;20251;-80
2023/05/05 18:14:23;;;;;;;1999.90;999.90;;;16.70;99.90;;;;;;6666476;89;20212;-80
2023/05/05 18:24:24;;;;;;;1999.90;999.90;;;16.60;99.90;;;;;;6670642;89;20204;-79
2023/05/05 18:34:25;;;;;;;1999.90;999.90;;;16.50;99.90;;;;;;6671884;89;20204;-80
2023/05/05 18:44:26;;;;;;;1999.90;999.90;;;16.30;99.90;;;;;;6670907;89;20528;-80
2023/05/05 18:54:26;;;;;;;1999.90;999.90;;;16.20;99.90;;;;;;6671086;88;20512;-79
2023/05/05 19:04:27;;;;;;;1999.90;999.90;;;15.90;99.90;;;;;;6673967;89;20238;-80
2023/05/05 19:14:28;;;;;;;1999.90;999.90;;;15.80;99.90;;;;;;6670696;89;20217;-80
2023/05/05 19:24:28;;;;;;;1999.90;999.90;;;15.50;99.90;;;;;;6671722;89;20208;-80
2023/05/05 19:34:29;;;;;;;1999.90;999.90;;;15.40;99.90;;;;;;6675649;89;20211;-80
2023/05/05 19:44:30;;;;;;;1999.90;999.90;;;15.10;99.90;;;;;;6689141;89;20211;-82
2023/05/05 19:54:30;;;;;;;1999.90;999.90;;;15.00;99.90;;;;;;6684648;89;20257;-80
2023/05/05 20:04:31;;;;;;;1999.90;999.90;;;14.90;99.90;;;;;;6687146;89;20218;-79
2023/05/05 20:14:31;;;;;;;1999.90;999.90;;;14.80;99.90;;;;;;6687461;89;20236;-79
2023/05/05 20:24:32;;;;;;;1999.90;999.90;;;14.70;99.90;;;;;;6674315;89;20204;-80
2023/05/05 20:34:33;;;;;;;1999.90;999.90;;;14.60;99.90;;;;;;6679559;89;20199;-80
2023/05/05 20:44:33;;;;;;;1999.90;999.90;;;14.40;99.90;;;;;;6682935;89;20204;-80
2023/05/05 20:54:34;;;;;;;1999.90;999.90;;;14.30;99.90;;;;;;6683260;89;20219;-81
2023/05/05 21:04:35;;;;;;;1999.90;999.90;;;14.10;99.90;;;;;;6687971;89;20192;-80
2023/05/05 21:14:35;;;;;;;1999.90;999.90;;;14.00;99.90;;;;;;6687696;89;20183;-81
2023/05/05 21:24:37;;;;;;;1999.90;999.90;;;13.80;99.90;;;;;;6689062;89;20183;-80
2023/05/05 21:34:38;;;;;;;1999.90;999.90;;;13.70;99.90;;;;;;6690368;89;20163;-81
2023/05/05 21:44:39;;;;;;;1999.90;999.90;;;13.60;99.90;;;;;;6676559;89;20201;-80
2023/05/05 22:04:47;;;;;;;1999.90;999.90;;;13.70;99.90;;;;;;6677564;89;20308;-79
2023/05/05 22:14:47;;;;;;;1999.90;999.90;;;13.80;99.90;;;;;;6672713;88;20259;-79
2023/05/05 22:24:48;;;;;;;1999.90;999.90;;;13.80;99.90;;;;;;6672576;89;20192;-80
2023/05/05 22:34:48;;;;;;;1999.90;999.90;;;13.70;99.90;;;;;;6675668;89;20246;-79
2023/05/05 22:44:49;;;;;;;1999.90;999.90;;;13.50;99.90;;;;;;6669965;89;20195;-79
2023/05/05 22:54:49;;;;;;;1999.90;999.90;;;13.40;99.90;;;;;;6669646;89;20219;-78
2023/05/05 23:04:51;;;;;;;1999.90;999.90;;;13.40;99.90;;;;;;6666080;89;20206;-77
2023/05/05 23:14:51;;;;;;;1999.90;999.90;;;13.40;99.90;;;;;;6668427;89;20697;-77
2023/05/05 23:24:52;;;;;;;1999.90;999.90;;;13.50;99.90;;;;;;6670221;89;20183;-79
2023/05/05 23:34:53;;;;;;;1999.90;999.90;;;13.30;99.90;;;;;;6668168;89;20229;-78
2023/05/05 23:44:53;;;;;;;1999.90;999.90;;;13.20;99.90;;;;;;6669521;89;20618;-77
2023/05/05 23:54:54;;;;;;;1999.90;999.90;;;13.10;99.90;;;;;;6665782;89;20244;-78
